Yong'An, China
Current Conditions -  °F | °C
As of 9:00 AM on Monday 24 Nov 2014 (Local Time) from ZSAM Reporting Station
Broken Clouds Broken Clouds  
Wind Chill: 73°   Ceiling: 3000
Heat Index: 73°   Visibility: 6mi
Dew Point: 66°   Wind: 4mph
Humidity: 78%   Direction: 270°W
Pressure: 30.03"   Gusts: NA
Location:  25.97°N, 117.35°E
Report Text: ZSAM 240100Z 27002MPS 9999 BKN030 23/19 Q1017 NOSIG
Loading
Personal Weather Stations






























Interactive Weather Map New forecast layout! Learn more

10-Day Weather Forecast

Advertisements
Track Severe Weather on mobile